createdAt,value
2022-09-25T00:01:29.415Z,11.90
2022-09-25T00:06:27.671Z,11.80
2022-09-25T00:08:57.658Z,11.80
2022-09-25T00:11:28.723Z,11.70
2022-09-25T00:13:57.156Z,11.70
2022-09-25T00:16:27.260Z,11.60
2022-09-25T00:19:12.422Z,11.60
2022-09-25T00:21:40.345Z,11.60
2022-09-25T00:24:12.449Z,11.60
2022-09-25T00:26:42.559Z,11.60
2022-09-25T00:29:15.059Z,11.70
2022-09-25T00:31:43.012Z,11.90
2022-09-25T00:34:12.041Z,11.70
2022-09-25T00:36:40.279Z,11.70
2022-09-25T00:44:47.700Z,11.70
2022-09-25T00:47:20.112Z,11.80
2022-09-25T00:49:48.545Z,11.70
2022-09-25T00:52:16.733Z,11.70
2022-09-25T00:54:49.950Z,11.70
2022-09-25T00:57:21.713Z,11.60
2022-09-25T00:59:53.535Z,11.50
2022-09-25T01:02:26.732Z,11.50
2022-09-25T01:04:58.817Z,11.50
2022-09-25T01:07:26.936Z,12.90
2022-09-25T01:10:02.542Z,11.30
2022-09-25T01:12:31.055Z,11.30
2022-09-25T01:14:59.061Z,11.40
2022-09-25T01:17:34.537Z,11.30
2022-09-25T01:20:15.129Z,11.50
2022-09-25T01:22:58.365Z,14.00
2022-09-25T01:25:44.958Z,11.20
2022-09-25T01:28:23.179Z,11.20
2022-09-25T01:30:58.706Z,11.20
2022-09-25T01:33:32.774Z,11.20
2022-09-25T01:36:03.470Z,11.40
2022-09-25T01:38:36.018Z,11.10
2022-09-25T01:41:09.675Z,11.00
2022-09-25T01:43:42.064Z,11.10
2022-09-25T01:46:16.950Z,11.10
2022-09-25T01:48:48.606Z,11.10
2022-09-25T01:51:20.798Z,13.80
2022-09-25T01:53:52.709Z,11.00
2022-09-25T01:56:29.240Z,11.00
2022-09-25T01:59:01.486Z,11.00
2022-09-25T02:01:35.868Z,11.00
2022-09-25T02:04:08.164Z,10.90
2022-09-25T02:06:38.585Z,10.90
2022-09-25T02:09:11.190Z,10.90
2022-09-25T02:11:44.600Z,10.80
2022-09-25T02:14:17.777Z,11.00
2022-09-25T02:16:49.350Z,10.80
2022-09-25T02:19:36.196Z,10.70
2022-09-25T02:22:09.077Z,10.70
2022-09-25T02:24:42.101Z,10.70
2022-09-25T02:27:10.241Z,10.70
2022-09-25T02:29:38.271Z,13.20
2022-09-25T02:32:12.092Z,11.90
2022-09-25T02:37:11.819Z,10.70
2022-09-25T02:39:41.064Z,10.90
2022-09-25T02:42:21.133Z,11.40
2022-09-25T02:45:04.664Z,10.60
2022-09-25T02:47:38.320Z,10.50
2022-09-25T02:50:14.379Z,10.50
2022-09-25T02:52:50.149Z,10.50
2022-09-25T02:55:25.666Z,10.50
2022-09-25T02:57:57.603Z,10.40
2022-09-25T03:00:25.848Z,10.50
2022-09-25T03:02:59.595Z,10.50
2022-09-25T03:05:28.277Z,11.20
2022-09-25T03:08:13.841Z,10.40
2022-09-25T03:15:45.344Z,10.30
2022-09-25T03:18:15.299Z,10.20
2022-09-25T03:20:43.363Z,10.70
2022-09-25T03:23:11.608Z,10.80
2022-09-25T03:25:39.900Z,10.00
2022-09-25T03:28:13.018Z,10.00
2022-09-25T03:30:41.607Z,9.90
2022-09-25T03:33:10.673Z,9.90
2022-09-25T03:40:38.682Z,9.80
2022-09-25T03:45:33.771Z,9.80
2022-09-25T03:48:02.018Z,9.70
2022-09-25T03:50:30.190Z,9.80
2022-09-25T03:52:59.691Z,9.80
2022-09-25T03:55:27.649Z,9.70
2022-09-25T03:57:55.541Z,9.60
2022-09-25T04:00:24.031Z,9.70
2022-09-25T04:05:21.798Z,9.70
2022-09-25T04:10:19.325Z,9.80
2022-09-25T04:12:47.507Z,10.40
2022-09-25T04:15:15.547Z,9.80
2022-09-25T04:25:10.038Z,9.70
2022-09-25T04:30:10.734Z,9.80
2022-09-25T04:35:24.951Z,9.70
2022-09-25T04:37:52.821Z,9.80
2022-09-25T04:45:19.572Z,9.80
2022-09-25T04:47:47.605Z,10.60
2022-09-25T04:50:17.197Z,9.80
2022-09-25T04:52:46.451Z,9.80
2022-09-25T04:55:14.445Z,9.80
2022-09-25T04:58:02.426Z,9.70
2022-09-25T05:00:33.696Z,9.70
2022-09-25T05:03:04.396Z,9.80
2022-09-25T05:05:33.062Z,9.80
2022-09-25T05:08:02.893Z,10.80
2022-09-25T05:10:32.545Z,7.20
2022-09-25T05:13:01.988Z,9.80
2022-09-25T05:15:33.435Z,9.80
2022-09-25T05:25:28.002Z,9.90
2022-09-25T05:27:58.393Z,9.90
2022-09-25T05:30:27.053Z,9.90
2022-09-25T05:32:58.255Z,9.90
2022-09-25T05:35:27.817Z,9.90
2022-09-25T05:37:56.182Z,9.90
2022-09-25T05:40:25.128Z,9.90
2022-09-25T05:42:55.260Z,10.00
2022-09-25T05:45:24.249Z,10.80
2022-09-25T05:48:03.258Z,10.00
2022-09-25T05:53:01.678Z,10.00
2022-09-25T05:55:30.390Z,10.00
2022-09-25T05:58:02.699Z,10.10
2022-09-25T06:00:32.808Z,10.10
2022-09-25T06:03:02.916Z,10.00
2022-09-25T06:05:31.208Z,10.50
2022-09-25T06:17:55.965Z,10.30
2022-09-25T06:27:53.905Z,10.60
2022-09-25T06:30:22.078Z,10.60
2022-09-25T06:35:19.077Z,10.70
2022-09-25T06:37:48.378Z,10.70
2022-09-25T06:45:14.367Z,10.90
2022-09-25T06:50:12.334Z,11.10
2022-09-25T06:52:43.618Z,11.00
2022-09-25T06:57:52.480Z,11.00
2022-09-25T07:33:09.501Z,12.50
2022-09-25T07:35:38.504Z,12.50
2022-09-25T07:45:34.024Z,12.80
2022-09-25T07:48:03.670Z,12.90
2022-09-25T07:50:37.666Z,12.80
2022-09-25T07:53:10.802Z,12.80
2022-09-25T07:55:41.283Z,12.60
2022-09-25T08:00:46.050Z,12.60
2022-09-25T08:03:16.851Z,12.70
2022-09-25T08:05:54.924Z,12.80
2022-09-25T08:08:31.435Z,12.80
2022-09-25T08:24:27.088Z,13.80
2022-09-25T08:27:07.816Z,13.80
2022-09-25T08:29:42.375Z,13.60
2022-09-25T08:42:20.257Z,13.30
2022-09-25T08:48:10.930Z,13.40
2022-09-25T08:53:17.507Z,13.20
2022-09-25T08:56:07.459Z,13.10
2022-09-25T08:58:45.073Z,13.10
2022-09-25T09:01:17.994Z,13.20
2022-09-25T09:03:54.542Z,13.10
2022-09-25T09:06:27.937Z,13.30
2022-09-25T09:09:22.134Z,13.30
2022-09-25T09:12:15.219Z,13.30
2022-09-25T09:14:52.081Z,13.00
2022-09-25T09:17:59.943Z,12.90
2022-09-25T09:20:35.300Z,12.90
2022-09-25T09:25:59.927Z,13.20
2022-09-25T09:29:24.766Z,13.20
2022-09-25T09:32:06.110Z,13.50
2022-09-25T09:53:34.260Z,13.40
2022-09-25T09:56:09.259Z,13.50
2022-09-25T09:58:47.747Z,13.80
2022-09-25T10:01:40.193Z,14.00
2022-09-25T10:04:12.823Z,14.20
2022-09-25T10:06:45.448Z,14.20
2022-09-25T10:33:57.261Z,15.40
2022-09-25T10:36:34.320Z,15.60
2022-09-25T10:44:24.343Z,15.80
2022-09-25T10:50:12.343Z,16.00
2022-09-25T11:00:45.275Z,15.90
2022-09-25T11:03:21.705Z,16.20
2022-09-25T11:05:57.309Z,16.40
2022-09-25T11:08:32.650Z,16.30
2022-09-25T11:59:26.307Z,16.80
2022-09-25T12:05:07.365Z,16.40
2022-09-25T12:08:05.200Z,16.30
2022-09-25T12:10:46.578Z,16.70
2022-09-25T12:13:31.061Z,16.40
2022-09-25T12:16:14.073Z,16.60
2022-09-25T12:19:11.638Z,16.60
2022-09-25T12:21:48.186Z,16.60
2022-09-25T12:24:32.791Z,16.40
2022-09-25T12:27:09.296Z,16.50
2022-09-25T12:30:03.414Z,16.60
2022-09-25T12:36:00.297Z,17.00
2022-09-25T12:38:38.646Z,17.10
2022-09-25T12:41:18.285Z,17.30
2022-09-25T12:43:53.925Z,17.40
2022-09-25T12:46:30.361Z,17.00
2022-09-25T12:49:11.550Z,16.80
2022-09-25T12:54:29.999Z,16.40
2022-09-25T13:00:18.684Z,16.10
2022-09-25T13:03:25.931Z,16.00
2022-09-25T13:06:05.730Z,15.80
2022-09-25T13:08:41.052Z,15.60
2022-09-25T13:11:15.907Z,15.40
2022-09-25T13:13:51.540Z,15.30
2022-09-25T13:21:26.779Z,15.20
2022-09-25T13:24:00.298Z,15.00
2022-09-25T13:29:06.531Z,14.80
2022-09-25T13:40:39.407Z,14.20
2022-09-25T13:46:25.002Z,13.90
2022-09-25T13:51:36.761Z,13.80
2022-09-25T13:54:26.742Z,13.60
2022-09-25T14:02:48.991Z,13.30
2022-09-25T14:10:47.027Z,12.80
2022-09-25T14:13:23.090Z,12.70
2022-09-25T14:18:35.543Z,12.70
2022-09-25T14:23:50.201Z,12.70
2022-09-25T14:29:21.196Z,12.80
2022-09-25T14:32:04.502Z,12.80
2022-09-25T14:35:01.445Z,12.80
2022-09-25T14:41:32.337Z,13.00
2022-09-25T14:44:26.490Z,13.20
2022-09-25T14:49:27.888Z,13.30
2022-09-25T14:51:58.654Z,13.20
2022-09-25T14:59:55.001Z,13.30
2022-09-25T15:02:35.829Z,13.30
2022-09-25T15:13:15.955Z,13.50
2022-09-25T15:16:18.319Z,13.60
2022-09-25T15:18:49.853Z,13.70
2022-09-25T15:21:26.186Z,13.70
2022-09-25T15:34:04.305Z,14.00
2022-09-25T15:47:02.745Z,13.80
2022-09-25T15:49:36.328Z,13.70
2022-09-25T15:52:08.639Z,14.50
2022-09-25T15:54:46.514Z,13.60
2022-09-25T15:57:17.718Z,13.60
2022-09-25T16:00:06.396Z,13.50
2022-09-25T16:02:57.654Z,13.60
2022-09-25T16:05:32.442Z,13.70
2022-09-25T16:08:18.956Z,13.80
2022-09-25T16:10:50.457Z,13.90
2022-09-25T16:13:26.438Z,14.00
2022-09-25T16:18:40.111Z,14.00
2022-09-25T16:21:20.818Z,14.00
2022-09-25T16:23:58.015Z,13.80
2022-09-25T16:26:33.993Z,13.90
2022-09-25T16:29:09.153Z,13.70
2022-09-25T16:31:38.603Z,13.70
2022-09-25T16:34:23.958Z,13.60
2022-09-25T16:39:27.775Z,13.60
2022-09-25T16:42:00.817Z,13.60
2022-09-25T16:44:50.988Z,13.60
2022-09-25T16:47:21.355Z,13.50
2022-09-25T16:52:22.977Z,13.50
2022-09-25T16:54:59.158Z,13.50
2022-09-25T17:02:36.243Z,13.40
2022-09-25T17:05:11.751Z,13.30
2022-09-25T17:07:42.811Z,13.30
2022-09-25T17:10:15.448Z,13.30
2022-09-25T17:12:49.895Z,13.20
2022-09-25T17:15:26.342Z,13.10
2022-09-25T17:17:57.355Z,13.10
2022-09-25T17:20:29.508Z,13.10
2022-09-25T17:25:41.582Z,13.10
2022-09-25T17:44:14.856Z,12.80
2022-09-25T17:51:45.837Z,12.70
2022-09-25T17:56:46.733Z,12.80
2022-09-25T17:59:15.815Z,12.80
2022-09-25T18:06:52.831Z,12.70
2022-09-25T18:14:33.842Z,12.70
2022-09-25T18:17:04.735Z,12.70
2022-09-25T18:27:28.024Z,12.50
2022-09-25T18:45:13.200Z,12.60
2022-09-25T18:47:42.462Z,12.50
2022-09-25T18:50:15.488Z,12.50
2022-09-25T19:18:00.949Z,12.30
2022-09-25T19:25:30.393Z,12.30
2022-09-25T19:45:55.039Z,12.40
2022-09-25T19:53:33.373Z,12.40
2022-09-25T19:56:04.725Z,12.40
2022-09-25T19:58:38.399Z,12.40
2022-09-25T20:01:12.405Z,12.40
2022-09-25T20:06:12.039Z,12.30
2022-09-25T20:13:44.058Z,12.40
2022-09-25T20:16:14.820Z,12.30
2022-09-25T20:21:13.915Z,12.30
2022-09-25T20:23:42.091Z,12.30
2022-09-25T20:26:11.813Z,12.40
2022-09-25T20:31:12.900Z,12.30
2022-09-25T20:36:12.954Z,12.20
2022-09-25T20:41:11.463Z,12.10
2022-09-25T20:43:44.109Z,12.00
2022-09-25T20:46:14.266Z,12.00
2022-09-25T20:48:45.910Z,12.00
2022-09-25T20:51:17.042Z,12.00
2022-09-25T20:56:15.544Z,12.00
2022-09-25T21:01:22.828Z,11.90
2022-09-25T21:03:52.975Z,11.90
2022-09-25T21:06:23.752Z,11.90
2022-09-25T21:11:21.478Z,11.80
2022-09-25T21:16:22.344Z,11.80
2022-09-25T21:18:54.844Z,11.80
2022-09-25T21:23:54.228Z,11.70
2022-09-25T21:26:23.470Z,11.70
2022-09-25T21:28:54.759Z,11.70
2022-09-25T21:31:24.608Z,11.70
2022-09-25T21:33:53.745Z,11.70
2022-09-25T21:36:23.166Z,11.70
2022-09-25T21:41:21.714Z,11.70
2022-09-25T21:43:53.401Z,11.70
2022-09-25T21:48:54.047Z,11.70
2022-09-25T21:51:24.074Z,11.70
2022-09-25T21:53:54.217Z,11.60
2022-09-25T21:56:25.262Z,11.60
2022-09-25T21:58:55.002Z,11.60
2022-09-25T22:01:27.600Z,11.60
2022-09-25T22:03:58.269Z,11.50
2022-09-25T22:06:27.873Z,11.50
2022-09-25T22:08:58.240Z,11.40
2022-09-25T22:11:27.258Z,11.50
2022-09-25T22:13:58.749Z,11.40
2022-09-25T22:16:31.602Z,11.40
2022-09-25T22:19:01.542Z,11.40
2022-09-25T22:21:31.571Z,11.40
2022-09-25T22:23:59.986Z,11.50
2022-09-25T22:26:29.194Z,11.40
2022-09-25T22:31:29.713Z,11.40
2022-09-25T22:33:59.658Z,11.40
2022-09-25T22:36:28.905Z,11.40
2022-09-25T22:38:57.526Z,11.30
2022-09-25T22:41:26.235Z,11.40
2022-09-25T22:43:58.468Z,11.40
2022-09-25T22:51:28.226Z,11.40
2022-09-25T22:53:56.912Z,11.30
2022-09-25T22:56:29.233Z,11.30
2022-09-25T22:58:59.497Z,11.30
2022-09-25T23:01:33.141Z,11.30
2022-09-25T23:04:03.525Z,11.30
2022-09-25T23:06:32.998Z,11.20
2022-09-25T23:09:02.916Z,11.20
2022-09-25T23:14:01.513Z,11.20
2022-09-25T23:21:30.401Z,9.00
2022-09-25T23:23:59.341Z,11.20
2022-09-25T23:28:55.785Z,11.10
2022-09-25T23:36:24.807Z,11.10
2022-09-25T23:38:54.763Z,11.10
2022-09-25T23:41:24.641Z,11.10
2022-09-25T23:43:53.902Z,11.10
2022-09-25T23:46:24.722Z,11.10
2022-09-25T23:48:53.768Z,11.10
2022-09-25T23:53:52.043Z,11.20
2022-09-25T23:56:22.422Z,11.20
2022-09-25T23:58:51.054Z,11.20
